Time;durP1;ratioP1;P1;durP2;ratioP2;P2;SDS_P1;SDS_P2;PMS_P1;PMS_P2;Temp;Humidity;BMP_temperature;BMP_pressure;BME280_temperature;BME280_humidity;BME280_pressure;Samples;Min_cycle;Max_cycle;Signal;HPM_P1;HPM_P2
2022/05/09 00:02:05;;;;;;;0.80;0.80;;;12.80;74.10;12.20;99002.00;;;;5117672;28;20532;-79
2022/05/09 00:04:34;;;;;;;0.63;0.63;;;12.80;73.70;12.10;99006.00;;;;5135475;28;20221;-80
2022/05/09 00:07:01;;;;;;;1.20;1.17;;;12.70;73.80;12.10;99002.00;;;;5135612;28;20193;-79
2022/05/09 00:09:28;;;;;;;1.43;1.30;;;12.70;74.60;12.20;98997.00;;;;5117272;28;20280;-79
2022/05/09 00:11:54;;;;;;;1.70;1.60;;;12.70;74.50;12.20;98999.00;;;;5135424;28;20217;-79
2022/05/09 00:14:21;;;;;;;1.10;1.10;;;12.80;75.00;12.20;98997.00;;;;5135350;28;20225;-78
2022/05/09 00:16:50;;;;;;;1.63;1.53;;;12.70;75.50;12.10;98994.00;;;;5135354;27;20213;-79
2022/05/09 00:19:21;;;;;;;1.20;1.20;;;12.80;75.80;12.20;98997.00;;;;5134907;28;20632;-80
2022/05/09 00:21:51;;;;;;;3.80;1.57;;;12.80;77.00;12.20;99004.00;;;;5135479;28;20221;-79
2022/05/09 00:24:22;;;;;;;2.10;1.27;;;12.80;77.10;12.10;99000.00;;;;5117148;28;20232;-79
2022/05/09 00:26:51;;;;;;;0.80;0.80;;;12.70;77.40;12.00;99004.00;;;;5135133;28;20217;-78
2022/05/09 00:29:20;;;;;;;1.33;1.23;;;12.70;77.40;12.00;98993.00;;;;5135173;28;20221;-79
2022/05/09 00:31:55;;;;;;;0.80;0.80;;;12.70;77.60;11.90;98994.00;;;;5135271;28;20204;-79
2022/05/09 00:34:22;;;;;;;1.17;1.07;;;12.60;78.20;12.00;98976.00;;;;5117095;28;20211;-80
2022/05/09 00:36:55;;;;;;;1.00;1.00;;;12.60;78.40;12.00;98996.00;;;;5135097;28;20284;-80
2022/05/09 00:39:22;;;;;;;3.13;1.57;;;12.60;78.40;11.90;98992.00;;;;5134978;28;20228;-80
2022/05/09 00:41:49;;;;;;;1.13;1.13;;;12.60;78.60;11.80;98996.00;;;;5116849;28;20636;-77
2022/05/09 00:44:20;;;;;;;1.17;1.10;;;12.50;78.70;11.90;98999.00;;;;5134893;28;20221;-79
2022/05/09 00:46:49;;;;;;;0.83;0.83;;;12.50;78.20;11.70;98992.00;;;;5134985;28;20197;-78
2022/05/09 00:49:26;;;;;;;1.63;1.53;;;12.40;77.30;11.50;98995.00;;;;5134830;28;20270;-79
2022/05/09 00:52:03;;;;;;;1.00;1.00;;;12.30;77.10;11.50;98990.00;;;;5134982;28;20203;-78
2022/05/09 00:54:36;;;;;;;1.20;1.17;;;12.20;78.20;11.70;99001.00;;;;5134800;28;20201;-78
2022/05/09 00:57:14;;;;;;;1.10;1.10;;;12.20;78.70;11.60;98999.00;;;;5117131;28;20251;-79
2022/05/09 00:59:44;;;;;;;1.80;0.97;;;12.20;78.80;11.50;99001.00;;;;5134759;28;20198;-79
2022/05/09 01:02:14;;;;;;;2.20;1.47;;;12.20;79.50;11.90;99000.00;;;;5134797;28;20188;-80
2022/05/09 01:04:50;;;;;;;1.07;0.97;;;12.40;79.50;11.60;98999.00;;;;5134621;28;20220;-79
2022/05/09 01:07:17;;;;;;;0.93;0.93;;;12.30;78.70;11.60;98998.00;;;;5116785;28;20233;-79
2022/05/09 01:09:44;;;;;;;1.00;1.00;;;12.20;78.80;11.40;98992.00;;;;5134797;28;20256;-79
2022/05/09 01:12:16;;;;;;;1.60;1.50;;;12.10;78.80;11.40;98992.00;;;;5134722;28;20229;-79
2022/05/09 01:14:43;;;;;;;1.80;1.70;;;12.10;79.40;11.30;99004.00;;;;5134727;28;20201;-79
2022/05/09 01:17:11;;;;;;;1.23;1.23;;;12.00;78.70;11.30;99000.00;;;;5134585;28;20596;-79
2022/05/09 01:19:40;;;;;;;0.97;0.97;;;12.00;79.80;11.30;99000.00;;;;5134611;28;20234;-79
2022/05/09 01:22:24;;;;;;;1.17;1.17;;;11.90;79.40;11.30;98993.00;;;;5134503;28;20742;-78
2022/05/09 01:24:53;;;;;;;1.07;1.07;;;11.90;79.80;11.30;98996.00;;;;5134183;28;20213;-79
2022/05/09 01:27:20;;;;;;;1.10;1.10;;;11.90;80.20;11.30;99002.00;;;;5134391;28;20743;-79
2022/05/09 01:29:59;;;;;;;3.30;1.07;;;11.90;80.70;11.20;98996.00;;;;5117623;28;20236;-78
2022/05/09 01:32:34;;;;;;;1.17;1.17;;;11.90;80.80;11.10;98988.00;;;;5120139;28;20268;-79
2022/05/09 01:35:08;;;;;;;1.27;1.23;;;11.80;81.50;11.30;98993.00;;;;5138149;28;20224;-77
2022/05/09 01:37:40;;;;;;;1.00;1.00;;;11.90;82.00;11.10;98996.00;;;;5120007;28;20230;-79
2022/05/09 01:40:07;;;;;;;0.77;0.77;;;11.80;81.80;11.20;98993.00;;;;5138077;28;20304;-79
2022/05/09 01:42:35;;;;;;;1.57;1.47;;;11.90;82.00;11.20;98996.00;;;;5138031;28;20193;-78
2022/05/09 01:45:02;;;;;;;1.30;1.27;;;11.90;82.60;11.10;98992.00;;;;5139361;28;20269;-79
2022/05/09 01:50:13;;;;;;;1.07;1.07;;;11.80;83.40;11.10;98988.00;;;;5137821;28;20223;-78
2022/05/09 01:52:40;;;;;;;1.43;1.33;;;11.80;83.30;11.10;98984.00;;;;5120840;28;20633;-79
2022/05/09 01:55:07;;;;;;;2.00;1.67;;;11.70;83.50;11.30;98993.00;;;;5137979;28;20197;-79
2022/05/09 01:57:36;;;;;;;1.30;1.20;;;11.80;83.10;11.20;98992.00;;;;5137950;28;20221;-79
2022/05/09 02:00:05;;;;;;;1.10;1.10;;;11.80;83.30;11.10;98997.00;;;;5137875;28;20193;-79
2022/05/09 02:02:32;;;;;;;0.87;0.87;;;11.80;82.00;11.10;98996.00;;;;5137816;28;20221;-79
2022/05/09 02:04:59;;;;;;;0.97;0.97;;;11.70;82.10;11.20;98993.00;;;;5138033;28;20204;-78
2022/05/09 02:07:26;;;;;;;1.03;1.03;;;11.70;82.50;11.10;98996.00;;;;5137673;28;20270;-79
2022/05/09 02:09:54;;;;;;;1.67;1.57;;;11.70;82.70;10.90;98990.00;;;;5119846;28;20634;-79
2022/05/09 02:12:21;;;;;;;1.00;1.00;;;11.60;81.30;10.90;98999.00;;;;5120074;28;20237;-79
2022/05/09 02:14:50;;;;;;;0.80;0.80;;;11.60;81.50;10.80;98992.00;;;;5137591;28;20220;-79
2022/05/09 02:17:17;;;;;;;1.17;1.17;;;11.50;82.50;10.70;98995.00;;;;5137504;28;20210;-79
2022/05/09 02:19:44;;;;;;;0.80;0.80;;;11.40;83.00;10.80;98992.00;;;;5137493;28;20219;-79
2022/05/09 02:22:12;;;;;;;1.13;1.10;;;11.40;83.70;10.80;99000.00;;;;5137186;28;20664;-79
2022/05/09 02:24:39;;;;;;;1.63;1.53;;;11.40;83.70;10.80;98997.00;;;;5137122;28;20249;-79
2022/05/09 02:27:08;;;;;;;0.97;0.97;;;11.40;83.40;10.70;99005.00;;;;5137154;28;20186;-79
2022/05/09 02:29:34;;;;;;;1.60;1.50;;;11.40;83.50;10.80;98999.00;;;;5137050;28;20208;-79
2022/05/09 02:32:05;;;;;;;2.30;2.10;;;11.40;83.80;10.60;99005.00;;;;5137072;28;20205;-80
2022/05/09 02:34:32;;;;;;;1.03;1.03;;;11.30;83.40;10.50;98994.00;;;;5137287;28;20621;-80
2022/05/09 02:36:59;;;;;;;1.37;1.27;;;11.30;84.40;10.60;98998.00;;;;5137137;28;20221;-79
2022/05/09 02:39:28;;;;;;;0.93;0.93;;;11.20;84.60;10.70;99005.00;;;;5137067;28;20280;-80
2022/05/09 02:41:55;;;;;;;1.00;1.00;;;11.30;85.10;10.70;99008.00;;;;5136469;27;20235;-79
2022/05/09 02:44:22;;;;;;;0.67;0.67;;;11.30;85.50;10.70;98998.00;;;;5136955;28;20244;-79
2022/05/09 02:46:48;;;;;;;1.20;1.20;;;11.30;84.70;10.80;99010.00;;;;5136748;28;20201;-79
2022/05/09 02:49:15;;;;;;;1.03;1.03;;;11.30;85.10;10.70;99007.00;;;;5136924;28;20296;-79
2022/05/09 02:51:41;;;;;;;1.10;1.10;;;11.30;84.40;10.80;99006.00;;;;5136754;28;20198;-79
2022/05/09 02:54:08;;;;;;;1.13;1.03;;;11.30;84.00;10.60;98996.00;;;;5136823;28;20213;-79
2022/05/09 02:56:35;;;;;;;1.50;1.40;;;11.30;83.20;10.60;98999.00;;;;5136730;28;20198;-79
2022/05/09 02:59:01;;;;;;;0.97;0.97;;;11.20;83.60;10.50;98997.00;;;;5136933;28;20209;-79
2022/05/09 03:01:28;;;;;;;0.93;0.93;;;11.20;83.60;10.60;98993.00;;;;5118795;28;20240;-80
2022/05/09 03:06:42;;;;;;;0.73;0.73;;;11.20;86.40;10.40;98993.00;;;;5136536;28;20224;-79
2022/05/09 03:09:08;;;;;;;0.90;0.90;;;11.20;97.60;10.30;98990.00;;;;5136472;28;20269;-79
2022/05/09 03:11:35;;;;;;;0.60;0.60;;;11.10;99.90;10.40;98990.00;;;;5136477;28;20227;-80
2022/05/09 03:14:01;;;;;;;0.77;0.77;;;11.10;99.90;10.40;98999.00;;;;5136631;28;20284;-79
2022/05/09 03:16:31;;;;;;;0.80;0.80;;;11.00;88.50;10.30;98991.00;;;;5136182;28;20536;-79
2022/05/09 03:18:57;;;;;;;0.70;0.70;;;11.00;88.40;10.10;98989.00;;;;5136368;28;20534;-79
2022/05/09 03:21:24;;;;;;;1.93;1.77;;;10.90;88.60;10.20;98992.00;;;;5136200;28;20239;-79
2022/05/09 03:23:53;;;;;;;0.83;0.83;;;10.80;89.40;10.10;98988.00;;;;5136474;28;20276;-79
2022/05/09 03:26:19;;;;;;;1.23;1.23;;;10.90;89.20;10.20;98988.00;;;;5137386;28;20554;-79
2022/05/09 03:28:46;;;;;;;1.03;1.03;;;10.90;88.80;10.30;98998.00;;;;5137474;28;20299;-79
2022/05/09 03:31:13;;;;;;;0.70;0.70;;;10.90;88.90;10.30;98999.00;;;;5137679;28;20193;-79
2022/05/09 03:33:41;;;;;;;0.67;0.67;;;10.90;88.70;10.30;98997.00;;;;5136229;28;20194;-78
2022/05/09 03:36:08;;;;;;;3.57;1.90;;;10.90;88.90;10.30;98976.00;;;;5136910;28;20205;-79
2022/05/09 03:38:34;;;;;;;0.80;0.80;;;10.90;88.60;10.20;98998.00;;;;5136163;28;20221;-79
2022/05/09 03:41:02;;;;;;;1.60;1.43;;;10.90;89.00;10.20;98990.00;;;;5136045;28;20224;-78
2022/05/09 03:43:29;;;;;;;0.93;0.93;;;10.90;88.70;10.20;99004.00;;;;5135770;28;20231;-79
2022/05/09 03:45:57;;;;;;;2.23;1.23;;;10.80;88.90;10.20;99003.00;;;;5117926;28;20200;-79
2022/05/09 03:48:24;;;;;;;0.80;0.80;;;10.80;89.80;10.20;98997.00;;;;5135923;28;20272;-78
2022/05/09 03:50:51;;;;;;;1.13;1.13;;;10.80;89.30;10.10;99004.00;;;;5135931;28;20200;-79
2022/05/09 03:53:17;;;;;;;0.83;0.83;;;10.70;91.80;10.10;99005.00;;;;5134799;27;20185;-79
2022/05/09 03:55:44;;;;;;;1.10;1.10;;;10.70;91.20;10.00;99001.00;;;;5135554;28;20221;-80
2022/05/09 03:58:10;;;;;;;1.47;1.40;;;10.70;90.30;10.10;98996.00;;;;5135872;28;20288;-79
2022/05/09 04:00:39;;;;;;;1.73;1.63;;;10.70;90.80;10.10;98990.00;;;;5135767;28;20256;-78
2022/05/09 04:03:06;;;;;;;0.83;0.83;;;10.70;90.50;10.10;98994.00;;;;5135588;28;20225;-78
2022/05/09 04:05:34;;;;;;;1.20;1.20;;;10.70;90.10;10.20;98952.00;;;;5135606;28;20217;-79
2022/05/09 04:08:04;;;;;;;1.00;1.00;;;10.70;90.00;10.10;99003.00;;;;5135722;28;20343;-79
2022/05/09 04:10:33;;;;;;;0.70;0.70;;;10.70;89.50;10.10;99000.00;;;;5135373;28;20225;-79
2022/05/09 04:13:01;;;;;;;0.90;0.90;;;10.70;89.80;10.00;99008.00;;;;5135352;28;20602;-80
2022/05/09 04:18:17;;;;;;;1.43;1.33;;;10.70;90.30;10.10;99007.00;;;;5117295;28;20253;-78
2022/05/09 04:20:45;;;;;;;8.73;1.13;;;10.70;90.00;10.10;99003.00;;;;5135301;28;20517;-78
2022/05/09 04:23:12;;;;;;;1.37;1.23;;;10.70;89.20;10.20;99004.00;;;;5135204;28;20217;-78
2022/05/09 04:25:39;;;;;;;1.17;1.07;;;10.70;89.40;10.20;99006.00;;;;5135463;28;20641;-78
2022/05/09 04:28:08;;;;;;;1.20;1.10;;;10.80;88.70;10.20;99015.00;;;;5135410;28;20229;-78
2022/05/09 04:30:36;;;;;;;1.13;1.13;;;10.80;92.50;10.20;99013.00;;;;5135308;28;20275;-78
2022/05/09 04:33:04;;;;;;;1.03;1.03;;;10.80;87.10;10.30;99009.00;;;;5117172;28;20193;-79
2022/05/09 04:35:32;;;;;;;1.50;1.50;;;10.90;97.50;10.40;99013.00;;;;5135102;28;20536;-78
2022/05/09 04:38:00;;;;;;;0.80;0.80;;;10.90;96.60;10.20;99006.00;;;;5135190;28;20268;-77
2022/05/09 04:40:30;;;;;;;1.93;1.40;;;;;10.20;99017.00;;;;5135034;28;20222;-78
2022/05/09 04:42:58;;;;;;;1.40;1.33;;;10.80;83.50;10.20;99007.00;;;;5135102;28;20197;-78
2022/05/09 04:45:30;;;;;;;0.57;0.57;;;10.90;85.10;10.10;99014.00;;;;5135007;28;20267;-78
2022/05/09 04:47:57;;;;;;;1.13;1.03;;;10.80;85.20;10.30;99013.00;;;;5134918;28;20634;-78
2022/05/09 04:50:27;;;;;;;0.80;0.80;;;10.80;85.70;10.40;99015.00;;;;5134861;28;20221;-77
2022/05/09 04:52:54;;;;;;;1.83;1.73;;;10.90;85.20;10.40;99028.00;;;;5134986;28;20648;-79
2022/05/09 04:55:21;;;;;;;0.90;0.90;;;10.90;84.90;10.40;99021.00;;;;5116834;28;20720;-78
2022/05/09 04:57:50;;;;;;;1.70;1.60;;;11.00;84.80;10.40;99014.00;;;;5134857;28;20229;-81
2022/05/09 05:00:24;;;;;;;0.67;0.67;;;11.00;84.40;10.30;99037.00;;;;5134735;28;20613;-78
2022/05/09 05:02:50;;;;;;;1.20;1.20;;;11.00;85.20;10.40;99033.00;;;;5134756;28;20436;-79
2022/05/09 05:05:17;;;;;;;1.53;1.43;;;11.00;85.30;10.30;99023.00;;;;5134404;27;20189;-78
2022/05/09 05:07:44;;;;;;;1.10;1.10;;;11.00;85.40;10.40;99031.00;;;;5134711;28;20220;-79
2022/05/09 05:10:13;;;;;;;0.97;0.97;;;11.00;85.40;10.50;99031.00;;;;5134673;28;20213;-77
2022/05/09 05:12:40;;;;;;;1.33;1.33;;;11.10;85.20;10.50;99034.00;;;;5135745;28;20293;-78
2022/05/09 05:15:09;;;;;;;1.33;1.33;;;11.10;84.90;10.50;99036.00;;;;5134592;28;20275;-78
2022/05/09 05:17:38;;;;;;;2.40;1.40;;;11.10;85.40;10.60;99032.00;;;;5134932;28;20225;-79
2022/05/09 05:20:09;;;;;;;1.27;1.27;;;11.20;85.40;10.60;99035.00;;;;5134510;28;20255;-79
2022/05/09 05:22:37;;;;;;;0.83;0.83;;;11.20;85.40;10.70;99034.00;;;;5134668;28;20193;-78
2022/05/09 05:25:05;;;;;;;1.60;1.50;;;11.20;85.40;10.80;99038.00;;;;5116528;28;20547;-79
2022/05/09 05:27:32;;;;;;;1.30;1.20;;;11.30;85.50;10.80;99036.00;;;;5134702;28;20232;-78
2022/05/09 05:29:59;;;;;;;1.73;1.63;;;11.40;85.10;10.90;99034.00;;;;5134291;28;20241;-79
2022/05/09 05:32:31;;;;;;;1.13;1.10;;;11.50;85.30;11.00;99039.00;;;;5134481;28;20193;-78
2022/05/09 05:34:58;;;;;;;0.97;0.97;;;11.50;85.40;11.10;99039.00;;;;5134357;28;20201;-79
2022/05/09 05:37:25;;;;;;;1.57;1.47;;;11.70;85.20;11.10;99049.00;;;;5134440;28;20538;-78
2022/05/09 05:39:52;;;;;;;1.37;1.37;;;11.70;85.60;11.20;99035.00;;;;5134682;28;20186;-79
2022/05/09 05:42:20;;;;;;;1.00;1.00;;;11.70;85.50;11.30;99038.00;;;;5134215;28;20225;-78
2022/05/09 05:44:48;;;;;;;1.10;1.10;;;11.80;84.60;11.40;99025.00;;;;5134272;28;20213;-79
2022/05/09 05:47:20;;;;;;;1.63;1.53;;;11.90;84.10;11.40;99028.00;;;;5134035;28;20671;-78
2022/05/09 05:49:48;;;;;;;0.90;0.90;;;12.00;83.40;11.50;99061.00;;;;5115953;28;20269;-79
2022/05/09 05:52:17;;;;;;;1.00;1.00;;;12.00;83.80;11.50;99052.00;;;;5134139;28;20209;-79
2022/05/09 05:54:46;;;;;;;1.37;1.33;;;12.10;83.70;11.60;99055.00;;;;5134077;28;20202;-78
2022/05/09 05:57:20;;;;;;;0.80;0.80;;;12.10;83.50;11.70;99047.00;;;;5134062;28;20490;-78
2022/05/09 05:59:52;;;;;;;2.33;1.77;;;12.20;83.50;11.80;99065.00;;;;5134097;28;20232;-78
2022/05/09 06:02:19;;;;;;;1.30;1.27;;;12.30;83.60;11.80;99061.00;;;;5134024;28;20218;-78
2022/05/09 06:04:47;;;;;;;1.27;1.17;;;12.40;83.50;12.00;99071.00;;;;5133963;28;20652;-78
2022/05/09 06:07:17;;;;;;;1.27;1.27;;;12.50;83.70;12.10;99065.00;;;;5133939;28;20647;-78
2022/05/09 06:09:47;;;;;;;1.77;1.67;;;12.60;83.50;12.20;99060.00;;;;5115707;28;20225;-79
2022/05/09 06:12:19;;;;;;;1.77;1.67;;;12.70;83.70;12.20;99059.00;;;;5133847;28;20201;-78
2022/05/09 06:15:24;;;;;;;1.83;1.70;;;12.90;83.80;12.40;99038.00;;;;5115788;27;20200;-78
2022/05/09 06:17:34;;;;;;;1.97;1.80;;;12.90;84.50;12.50;99064.00;;;;5139779;28;20304;-79
2022/05/09 06:20:03;;;;;;;1.10;1.10;;;13.00;84.00;12.60;99067.00;;;;5119311;28;20205;-79
2022/05/09 06:22:30;;;;;;;2.27;2.00;;;13.10;85.10;12.70;99073.00;;;;5137532;28;20232;-79
2022/05/09 06:24:57;;;;;;;1.40;1.40;;;13.20;85.70;12.80;99069.00;;;;5137457;28;20228;-79
2022/05/09 06:27:24;;;;;;;2.07;1.97;;;13.40;86.40;12.90;99069.00;;;;5137414;28;20568;-79
2022/05/09 06:29:53;;;;;;;1.90;1.80;;;13.50;86.80;13.00;99068.00;;;;5119113;28;20648;-79
2022/05/09 06:32:23;;;;;;;1.53;1.43;;;13.60;87.20;13.10;99063.00;;;;5137024;28;20267;-78
2022/05/09 06:34:50;;;;;;;4.67;2.37;;;13.80;87.40;13.30;99071.00;;;;5144243;28;20193;-82
2022/05/09 06:37:18;;;;;;;2.23;1.30;;;13.80;88.10;13.30;99070.00;;;;5141635;28;20513;-81
2022/05/09 06:39:45;;;;;;;1.43;1.00;;;13.90;88.60;13.40;99038.00;;;;5137167;28;20185;-82
2022/05/09 06:42:12;;;;;;;1.73;1.63;;;14.00;88.30;13.50;99042.00;;;;5138257;28;20197;-82
2022/05/09 06:44:39;;;;;;;7.07;2.03;;;14.00;89.00;13.60;99070.00;;;;5137310;28;20225;-84
2022/05/09 06:47:07;;;;;;;1.20;1.20;;;14.10;88.80;13.70;99075.00;;;;5119332;28;20216;-83
2022/05/09 06:49:35;;;;;;;1.73;1.57;;;14.20;88.90;13.80;99066.00;;;;5136836;28;20217;-79
2022/05/09 06:52:03;;;;;;;1.70;1.60;;;14.40;88.10;13.90;99069.00;;;;5136739;28;20217;-80
2022/05/09 06:54:30;;;;;;;1.67;1.57;;;14.40;88.70;13.90;99067.00;;;;5118784;28;20571;-77
2022/05/09 06:56:56;;;;;;;1.33;1.30;;;14.50;88.40;14.00;99080.00;;;;5136643;28;20679;-77
2022/05/09 06:59:23;;;;;;;1.50;1.43;;;;;14.10;99076.00;;;;5136853;28;20285;-77
2022/05/09 07:01:50;;;;;;;2.30;2.10;;;14.70;86.80;14.20;99073.00;;;;5136771;28;20293;-77
2022/05/09 07:04:17;;;;;;;1.90;1.80;;;;;14.20;99075.00;;;;5136545;28;20214;-77
2022/05/09 07:06:44;;;;;;;1.83;1.73;;;14.80;86.80;14.30;99072.00;;;;5136773;28;20542;-77
2022/05/09 07:09:12;;;;;;;1.50;1.40;;;14.90;87.00;14.40;99078.00;;;;5136713;28;20217;-75
2022/05/09 07:11:40;;;;;;;1.63;1.53;;;15.00;86.50;14.50;99051.00;;;;5137321;28;20325;-78
2022/05/09 07:14:07;;;;;;;1.00;1.00;;;15.10;85.00;14.50;99068.00;;;;5140240;28;20205;-76
2022/05/09 07:16:34;;;;;;;1.20;1.20;;;15.10;85.50;14.60;99075.00;;;;5136329;28;20217;-78
2022/05/09 07:19:01;;;;;;;3.40;1.67;;;15.20;85.10;14.70;99076.00;;;;5136438;28;20272;-75
2022/05/09 07:21:28;;;;;;;2.37;1.43;;;15.30;82.50;14.70;99077.00;;;;5136813;28;20247;-76
2022/05/09 07:23:54;;;;;;;2.47;2.27;;;15.30;83.10;14.90;99072.00;;;;5139009;28;20213;-77
2022/05/09 07:26:21;;;;;;;2.13;2.00;;;15.40;82.50;14.90;99075.00;;;;5125280;27;20201;-78
2022/05/09 07:28:49;;;;;;;1.40;1.30;;;15.50;81.80;15.00;99059.00;;;;5140560;28;20213;-78
2022/05/09 07:31:16;;;;;;;1.00;1.00;;;15.60;79.90;15.20;99075.00;;;;5136271;28;20206;-77
2022/05/09 07:33:45;;;;;;;2.30;2.20;;;15.70;80.00;15.20;99068.00;;;;5136089;28;20628;-77
2022/05/09 07:36:12;;;;;;;1.10;1.10;;;15.80;78.60;15.30;99048.00;;;;5117949;28;20615;-78
2022/05/09 07:38:42;;;;;;;1.27;1.27;;;15.80;79.00;15.40;99075.00;;;;5135958;28;20233;-77
2022/05/09 07:41:08;;;;;;;1.73;1.63;;;15.90;78.70;15.60;99080.00;;;;5136106;28;20208;-78
2022/05/09 07:43:35;;;;;;;1.67;1.10;;;16.10;76.70;15.60;99073.00;;;;5135967;28;20197;-77
2022/05/09 07:46:03;;;;;;;2.67;2.47;;;;;15.80;99083.00;;;;5135957;28;20205;-76
2022/05/09 07:48:30;;;;;;;1.10;1.10;;;16.30;73.60;15.90;99071.00;;;;5135722;28;20300;-77
2022/05/09 07:50:59;;;;;;;1.00;1.00;;;16.40;70.80;16.00;99077.00;;;;5117866;28;20659;-75
2022/05/09 07:53:30;;;;;;;0.67;0.67;;;16.50;70.90;16.00;99049.00;;;;5136075;28;20193;-77
2022/05/09 07:55:57;;;;;;;1.90;1.80;;;16.60;71.60;16.10;99053.00;;;;5135828;28;20196;-78
2022/05/09 07:58:24;;;;;;;0.87;0.87;;;16.60;70.40;16.10;99071.00;;;;5117601;28;20296;-77
2022/05/09 08:00:58;;;;;;;0.90;0.90;;;16.60;69.30;16.30;99076.00;;;;5135680;28;20300;-77
2022/05/09 08:03:29;;;;;;;7.00;2.47;;;16.80;67.50;16.40;99074.00;;;;5135702;28;20639;-78
2022/05/09 08:05:59;;;;;;;0.90;0.90;;;16.80;67.90;16.40;99063.00;;;;5135725;28;20193;-77
2022/05/09 08:08:31;;;;;;;2.37;1.50;;;17.00;67.70;16.60;99085.00;;;;5135492;28;20220;-77
2022/05/09 08:11:00;;;;;;;1.30;1.30;;;17.10;67.00;16.70;99079.00;;;;5117558;28;20254;-77
2022/05/09 08:13:32;;;;;;;1.13;1.13;;;17.10;67.50;16.70;99071.00;;;;5135241;28;20312;-76
2022/05/09 08:16:00;;;;;;;1.33;1.23;;;17.20;66.70;16.80;99084.00;;;;5135505;28;20274;-78
2022/05/09 08:18:29;;;;;;;1.47;1.40;;;17.30;64.40;16.90;99079.00;;;;5135442;28;20664;-78
2022/05/09 08:20:57;;;;;;;1.37;1.27;;;17.40;65.50;17.00;99085.00;;;;5135821;28;20231;-77
2022/05/09 08:23:24;;;;;;;1.53;1.13;;;17.50;65.90;17.10;99083.00;;;;5135334;28;20201;-77
2022/05/09 08:25:52;;;;;;;1.33;1.23;;;17.60;64.30;17.10;99081.00;;;;5117391;28;20236;-76
2022/05/09 08:28:20;;;;;;;1.03;1.03;;;17.60;63.80;17.30;99074.00;;;;5135279;28;20217;-76
2022/05/09 08:30:48;;;;;;;1.33;1.33;;;17.80;61.80;17.30;99089.00;;;;5135301;28;20652;-77
2022/05/09 08:33:21;;;;;;;1.60;1.50;;;17.90;61.80;17.40;99087.00;;;;5135256;28;20221;-77
2022/05/09 08:35:51;;;;;;;0.90;0.90;;;17.90;62.20;17.50;99081.00;;;;5135311;28;20197;-77
2022/05/09 08:38:19;;;;;;;0.87;0.77;;;17.90;62.40;17.50;99090.00;;;;5134618;27;20256;-77
2022/05/09 08:41:00;;;;;;;1.57;1.47;;;18.10;62.10;17.60;99064.00;;;;5134930;28;20268;-77
2022/05/09 08:43:50;;;;;;;1.57;1.40;;;18.10;61.40;17.70;99092.00;;;;5135173;28;20292;-78
2022/05/09 08:46:25;;;;;;;1.90;1.80;;;18.20;59.60;17.70;99081.00;;;;5116929;28;20225;-77
2022/05/09 08:49:15;;;;;;;1.13;1.13;;;18.30;60.40;17.80;99085.00;;;;5135151;28;20201;-78
2022/05/09 08:51:58;;;;;;;1.00;1.00;;;18.30;60.30;17.90;99085.00;;;;5134932;28;20673;-77
2022/05/09 08:54:26;;;;;;;0.90;0.90;;;18.30;59.90;18.00;99084.00;;;;5134782;28;20281;-77
2022/05/09 08:57:03;;;;;;;1.13;1.13;;;18.60;58.70;18.20;99080.00;;;;5134864;28;20197;-76
2022/05/09 08:59:46;;;;;;;1.47;1.37;;;18.60;59.20;18.30;99090.00;;;;5134868;28;20261;-76
2022/05/09 09:02:24;;;;;;;0.60;0.60;;;18.70;59.30;18.30;99076.00;;;;5134863;28;20221;-77
2022/05/09 09:04:56;;;;;;;1.17;1.17;;;18.90;57.20;18.50;99086.00;;;;5134791;28;20307;-76
2022/05/09 09:07:48;;;;;;;2.13;1.17;;;18.90;57.10;18.70;99082.00;;;;5134627;28;20308;-77
2022/05/09 09:10:26;;;;;;;1.13;1.10;;;19.10;57.70;18.70;99086.00;;;;5134688;28;20251;-76
2022/05/09 09:13:13;;;;;;;0.90;0.90;;;19.20;56.20;18.90;99088.00;;;;5134904;28;20655;-77
2022/05/09 09:15:58;;;;;;;0.90;0.90;;;19.30;56.10;19.00;99084.00;;;;5134471;28;20250;-77
2022/05/09 09:18:35;;;;;;;0.80;0.80;;;;;19.10;99085.00;;;;5134766;28;20258;-77
2022/05/09 09:21:15;;;;;;;1.80;0.90;;;19.50;55.60;19.20;99087.00;;;;5134526;28;20197;-77
2022/05/09 09:24:19;;;;;;;1.03;1.03;;;19.70;55.50;19.20;99090.00;;;;5134494;28;20242;-77
2022/05/09 09:27:03;;;;;;;1.27;1.27;;;19.70;55.40;19.30;99087.00;;;;5134349;28;20217;-77
2022/05/09 09:29:36;;;;;;;1.77;1.63;;;19.80;55.50;19.50;99085.00;;;;5134422;28;20228;-77
2022/05/09 09:32:08;;;;;;;0.93;0.93;;;19.90;55.10;19.50;99085.00;;;;5134021;28;20224;-77
2022/05/09 09:34:44;;;;;;;3.17;1.73;;;20.00;55.40;19.80;99082.00;;;;5134205;28;20208;-77
2022/05/09 09:37:19;;;;;;;1.60;1.50;;;20.10;54.30;19.80;99082.00;;;;5134206;28;20224;-77
2022/05/09 09:39:49;;;;;;;1.23;1.23;;;20.30;55.10;19.90;99087.00;;;;5116469;28;20519;-76
2022/05/09 09:42:15;;;;;;;1.70;1.60;;;20.40;53.80;20.10;99076.00;;;;5134259;28;20280;-77
2022/05/09 09:44:48;;;;;;;1.13;0.93;;;20.50;52.60;20.30;99087.00;;;;5134287;28;20240;-78
2022/05/09 09:47:25;;;;;;;1.10;1.10;;;20.70;51.70;20.40;99069.00;;;;5134165;28;20511;-76
2022/05/09 09:50:16;;;;;;;1.03;1.03;;;20.80;51.50;20.60;99080.00;;;;5134025;27;20722;-77
2022/05/09 09:52:48;;;;;;;1.20;1.20;;;20.90;50.90;20.60;99080.00;;;;5138045;28;20618;-76
2022/05/09 09:55:26;;;;;;;0.87;0.87;;;21.00;51.80;20.90;99077.00;;;;5138667;28;20193;-77
2022/05/09 09:57:54;;;;;;;1.47;1.37;;;21.20;50.40;20.80;99076.00;;;;5139785;28;20229;-78
2022/05/09 10:00:28;;;;;;;0.77;0.77;;;21.30;51.80;21.10;99075.00;;;;5137662;28;20271;-80
2022/05/09 10:03:13;;;;;;;1.10;1.10;;;21.40;51.90;21.10;99074.00;;;;5137672;28;20254;-78
2022/05/09 10:05:44;;;;;;;0.90;0.90;;;21.50;50.30;21.30;99079.00;;;;5137705;28;20258;-78
2022/05/09 10:08:24;;;;;;;1.17;1.17;;;21.70;49.60;21.60;99073.00;;;;5119574;28;20529;-77
2022/05/09 10:11:01;;;;;;;0.80;0.80;;;21.90;47.90;21.60;99067.00;;;;5137565;28;20639;-76
2022/05/09 10:13:38;;;;;;;2.72;2.33;;;22.00;47.60;21.70;99070.00;;;;5137536;28;20523;-77
2022/05/09 10:16:11;;;;;;;0.98;0.98;;;22.10;47.60;21.80;99070.00;;;;5119198;28;20723;-78
2022/05/09 10:18:42;;;;;;;1.65;1.55;;;22.20;46.80;21.90;99070.00;;;;5137399;28;20217;-78
2022/05/09 10:24:47;;;;;;;1.08;1.02;;;22.40;48.20;22.00;99060.00;;;;5137261;28;20201;-77
2022/05/09 10:26:59;;;;;;;0.75;0.75;;;22.50;47.40;22.30;99057.00;;;;5119043;28;20205;-77
2022/05/09 10:29:37;;;;;;;0.70;0.70;;;22.70;47.70;22.50;99055.00;;;;5137119;28;20377;-77
2022/05/09 10:32:10;;;;;;;0.93;0.93;;;22.90;45.80;22.60;99052.00;;;;5137026;28;20217;-76
2022/05/09 10:34:47;;;;;;;0.90;0.90;;;22.90;45.40;23.20;99057.00;;;;5141179;28;20296;-76
2022/05/09 10:37:24;;;;;;;1.25;1.25;;;23.40;42.90;23.10;99038.00;;;;5137045;28;20209;-77
2022/05/09 10:40:04;;;;;;;1.02;0.95;;;23.50;45.40;23.40;99052.00;;;;5137142;28;20193;-76
2022/05/09 10:42:42;;;;;;;4.25;1.45;;;23.70;44.60;23.70;99047.00;;;;5137061;28;20262;-76
2022/05/09 10:45:17;;;;;;;0.60;0.60;;;23.90;41.30;23.70;99041.00;;;;5136960;28;20279;-76
2022/05/09 10:47:52;;;;;;;0.98;0.98;;;24.00;41.50;23.60;99044.00;;;;5136868;28;20258;-79
2022/05/09 10:50:26;;;;;;;1.40;1.30;;;24.10;41.20;23.50;99047.00;;;;5119431;28;20280;-79
2022/05/09 10:53:06;;;;;;;3.67;1.45;;;23.90;40.30;23.30;99050.00;;;;5136829;28;20285;-75
2022/05/09 10:55:39;;;;;;;0.57;0.57;;;23.80;40.00;23.10;99048.00;;;;5136685;28;20289;-79
2022/05/09 10:58:23;;;;;;;2.05;1.80;;;23.60;41.30;22.90;99037.00;;;;5137148;28;20260;-80
2022/05/09 11:00:57;;;;;;;1.65;1.55;;;23.40;41.20;22.70;99028.00;;;;5136757;28;20223;-80
2022/05/09 11:03:34;;;;;;;1.92;1.58;;;23.20;42.70;22.60;99028.00;;;;5118488;28;20257;-81
2022/05/09 11:06:21;;;;;;;1.23;1.13;;;23.10;42.40;22.80;99032.00;;;;5137256;28;20219;-79
2022/05/09 11:09:15;;;;;;;1.13;1.13;;;23.20;43.40;23.10;99030.00;;;;5136832;28;20232;-78
2022/05/09 11:12:05;;;;;;;1.63;1.52;;;23.40;45.20;22.90;98998.00;;;;5136859;28;20224;-80
2022/05/09 11:14:48;;;;;;;1.58;1.48;;;23.30;42.00;23.40;99012.00;;;;5136734;28;20227;-80
2022/05/09 11:17:36;;;;;;;0.70;0.70;;;23.60;42.00;23.80;99018.00;;;;5136608;28;20254;-79
2022/05/09 11:20:19;;;;;;;0.88;0.88;;;24.00;39.80;23.70;99011.00;;;;5136638;28;20255;-79
2022/05/09 11:22:58;;;;;;;1.75;1.25;;;24.00;38.80;23.90;99002.00;;;;5118414;28;20254;-81